PST,Max TemperatureF,Mean TemperatureF,Min TemperatureF,Max Dew PointF,MeanDew PointF,Min DewpointF,Max Humidity, Mean Humidity, Min Humidity, Max Sea Level PressureIn, Mean Sea Level PressureIn, Min Sea Level PressureIn, Max VisibilityMiles, Mean VisibilityMiles, Min VisibilityMiles, Max Wind SpeedMPH, Mean Wind SpeedMPH, Max Gust SpeedMPH,PrecipitationIn, CloudCover, Events, WindDirDegrees
2013-1-1,52,45,37,37,35,33,85,70,54,30.30,30.26,30.23,10,10,10,21,7,29,T,2,,14
2013-1-2,57,45,33,40,34,31,89,65,41,30.27,30.21,30.15,10,10,10,7,1,9,0.00,0,,330
2013-1-3,57,45,32,42,36,30,89,66,43,30.29,30.24,30.19,10,10,7,8,2,15,0.00,0,,326
2013-1-4,58,47,36,42,38,35,100,74,47,30.32,30.25,30.20,10,8,5,8,2,14,0.00,0,,319
2013-1-5,57,48,38,48,43,36,89,78,66,30.28,30.20,30.10,10,10,7,20,5,23,0.05,6,Rain,144
2013-1-6,50,45,40,47,44,38,96,85,74,30.22,30.15,30.08,10,8,3,15,4,16,0.10,7,Rain,327
2013-1-7,57,47,37,48,41,37,100,83,66,30.28,30.22,30.18,10,8,0,9,2,10,0.00,2,Fog,355
2013-1-8,62,52,42,49,45,42,100,76,52,30.26,30.21,30.14,10,6,1,9,2,14,0.00,2,,330
2013-1-9,56,49,41,48,43,37,96,84,71,30.17,30.09,30.03,10,8,3,15,4,23,0.01,5,Rain,280
2013-1-10,50,45,39,37,35,33,79,66,52,30.23,30.15,30.11,10,10,10,15,6,18,0.00,1,,292
2013-1-11,52,44,35,39,35,31,85,69,52,30.30,30.21,30.16,10,10,10,18,3,23,0.00,2,,338
2013-1-12,50,42,33,36,28,17,92,60,27,30.28,30.22,30.17,10,10,10,9,2,10,0.00,1,,343
2013-1-13,50,41,31,30,25,18,82,56,29,30.30,30.24,30.20,10,10,10,9,3,12,0.00,0,,317
2013-1-14,51,43,35,26,19,13,54,40,26,30.43,30.38,30.27,10,10,10,12,3,15,0.00,0,,6
2013-1-15,54,43,32,34,27,22,75,53,30,30.51,30.45,30.43,10,10,10,9,2,18,0.00,0,,359
2013-1-16,58,45,32,39,31,27,82,59,36,30.46,30.37,30.28,10,10,8,7,1,8,0.00,0,,348
2013-1-17,62,48,34,37,34,30,89,64,39,30.29,30.23,30.17,10,10,8,14,2,24,0.00,0,,351
2013-1-18,65,50,35,41,35,32,92,63,34,30.25,30.19,30.15,10,10,8,10,1,29,0.00,0,,327
2013-1-19,64,50,35,41,36,31,82,61,39,30.28,30.22,30.18,10,10,10,8,1,31,0.00,0,,320
2013-1-20,65,50,34,39,35,33,85,58,31,30.26,30.21,30.15,10,10,9,7,1,9,0.00,0,,338
2013-1-21,66,50,34,40,35,29,89,58,26,30.20,30.15,30.10,10,10,9,8,1,12,0.00,0,,310
2013-1-22,61,49,36,44,38,33,85,61,37,30.13,30.08,30.02,10,9,7,8,2,21,0.00,0,,347
2013-1-23,55,51,47,50,45,41,96,84,71,30.11,30.05,29.99,10,8,3,13,2,43,0.04,4,Rain,267
2013-1-24,56,53,50,54,51,48,100,92,83,30.21,30.14,30.09,8,4,2,7,1,9,0.07,8,Rain,297
2013-1-25,63,58,52,56,53,50,100,86,72,30.21,30.15,30.06,10,5,1,9,2,20,0.03,6,Rain,356
2013-1-26,59,53,47,52,45,38,96,72,47,30.12,30.06,30.04,10,10,4,15,4,20,T,4,Rain,303
2013-1-27,55,50,44,40,38,31,76,57,38,30.20,30.16,30.11,10,10,10,14,6,17,0.00,0,,301
2013-1-28,57,50,42,42,40,37,82,67,51,30.32,30.25,30.20,10,10,10,14,5,18,T,2,Rain,298
2013-1-29,57,50,43,45,42,39,89,74,59,30.39,30.34,30.30,10,10,10,14,4,18,0.00,0,,328
2013-1-30,68,55,42,44,41,39,89,63,37,30.36,30.31,30.27,10,10,10,10,4,12,0.00,0,,290
2013-1-31,65,52,39,47,41,37,89,66,43,30.32,30.25,30.20,10,10,10,9,2,12,0.00,0,,341